Time;durP1;ratioP1;P1;durP2;ratioP2;P2;SDS_P1;SDS_P2;PMS_P1;PMS_P2;Temp;Humidity;BMP_temperature;BMP_pressure;BME280_temperature;BME280_humidity;BME280_pressure;Samples;Min_cycle;Max_cycle;Signal;HPM_P1;HPM_P2
2021/04/29 00:01:28;;;;;;;13.80;10.43;;;;;;;6.93;52.01;100610.73;1667139;82;21119;-77
2021/04/29 00:03:55;;;;;;;13.73;10.23;;;;;;;6.92;51.88;100610.42;1624072;86;21217;-78
2021/04/29 00:06:23;;;;;;;15.00;10.17;;;;;;;6.91;51.86;100608.74;1612577;87;21780;-79
2021/04/29 00:08:52;;;;;;;13.20;10.20;;;;;;;6.91;51.65;100608.74;1644047;85;21193;-79
2021/04/29 00:11:19;;;;;;;13.40;9.57;;;;;;;6.89;51.94;100608.08;1657893;81;21183;-77
2021/04/29 00:13:47;;;;;;;12.53;9.07;;;;;;;6.86;51.92;100607.08;1626826;86;21648;-79
2021/04/29 00:16:15;;;;;;;13.77;11.90;;;;;;;6.82;51.99;100610.03;1625026;87;21470;-78
2021/04/29 00:18:42;;;;;;;16.50;11.50;;;;;;;6.78;52.19;100611.81;1658955;85;21205;-78
2021/04/29 00:21:10;;;;;;;15.80;12.47;;;;;;;6.73;52.36;100606.17;1642274;86;21258;-79
2021/04/29 00:23:37;;;;;;;17.13;11.40;;;;;;;6.72;52.25;100607.97;1673546;84;21594;-78
2021/04/29 00:26:05;;;;;;;12.30;10.90;;;;;;;6.71;52.27;100605.50;1670832;84;21191;-79
2021/04/29 00:28:32;;;;;;;17.03;10.13;;;;;;;6.69;52.50;100606.16;1654524;85;21188;-79
2021/04/29 00:31:00;;;;;;;10.10;8.93;;;;;;;6.67;52.30;100607.63;1664987;85;21330;-78
2021/04/29 00:33:28;;;;;;;12.17;9.27;;;;;;;6.66;52.24;100603.81;1691180;82;21117;-78
2021/04/29 00:35:55;;;;;;;10.23;9.13;;;;;;;6.67;52.10;100604.13;1651916;85;21159;-78
2021/04/29 00:38:23;;;;;;;12.23;9.00;;;;;;;6.65;52.46;100608.28;1675860;85;21162;-78
2021/04/29 00:40:50;;;;;;;9.53;8.37;;;;;;;6.59;52.68;100607.09;1652018;86;21199;-78
2021/04/29 00:43:17;;;;;;;11.87;7.23;;;;;;;6.56;52.59;100603.92;1673562;84;21661;-78
2021/04/29 00:45:46;;;;;;;9.63;8.37;;;;;;;6.56;52.63;100609.22;1655482;84;21081;-78
2021/04/29 00:48:14;;;;;;;9.27;7.73;;;;;;;6.55;52.71;100601.73;1693573;83;21172;-77
2021/04/29 00:50:43;;;;;;;8.63;7.70;;;;;;;6.52;52.85;100610.52;1692600;83;21169;-77
2021/04/29 00:53:12;;;;;;;8.47;7.57;;;;;;;6.49;52.96;100608.17;1691347;83;21184;-77
2021/04/29 00:55:40;;;;;;;10.03;7.97;;;;;;;6.47;52.72;100603.52;1693132;83;21111;-77
2021/04/29 00:58:07;;;;;;;10.10;7.47;;;;;;;6.43;52.98;100601.17;1690437;84;21738;-78
2021/04/29 01:00:40;;;;;;;9.00;7.00;;;;;;;6.42;53.09;100602.17;1692963;83;21288;-78
2021/04/29 01:03:23;;;;;;;10.03;7.83;;;;;;;6.41;53.01;100597.85;1696003;83;21382;-79
2021/04/29 01:05:59;;;;;;;7.80;7.00;;;;;;;6.40;53.16;100599.33;1671777;84;21170;-78
2021/04/29 01:08:34;;;;;;;7.10;6.13;;;;;;;6.38;53.19;100599.47;1699407;83;21181;-78
2021/04/29 01:13:51;;;;;;;7.63;6.90;;;;;;;6.35;53.60;100598.98;1758253;79;23150;-77
2021/04/29 01:16:22;;;;;;;8.40;7.53;;;;;;;6.28;53.71;100596.10;1723581;80;22090;-78
2021/04/29 01:18:57;;;;;;;10.10;7.73;;;;;;;6.29;53.71;100594.28;1738774;80;21814;-78
2021/04/29 01:21:30;;;;;;;8.43;7.57;;;;;;;6.28;53.80;100595.28;1727824;80;21644;-77
2021/04/29 01:24:18;;;;;;;9.73;8.23;;;;;;;6.26;54.07;100595.93;1646566;83;21064;-77
2021/04/29 01:26:54;;;;;;;;;;;;;;;6.24;54.37;100588.14;1621962;87;21140;-77
2021/04/29 01:29:27;;;;;;;7.77;7.00;;;;;;;6.19;54.35;100596.52;1582854;89;20298;-77
2021/04/29 01:31:58;;;;;;;9.70;7.80;;;;;;;6.08;54.55;100592.79;1582786;89;21192;-77
2021/04/29 01:34:31;;;;;;;8.87;7.90;;;;;;;6.05;54.63;100597.08;1628023;84;21064;-77
2021/04/29 01:37:00;;;;;;;11.17;8.10;;;;;;;6.03;54.99;100594.58;1614635;87;21208;-77
2021/04/29 01:39:58;;;;;;;9.57;8.17;;;;;;;6.04;54.91;100595.41;1795317;79;22967;-79
2021/04/29 01:42:25;;;;;;;7.63;6.83;;;;;;;5.93;55.11;100595.11;1743001;80;21333;-79
2021/04/29 01:44:54;;;;;;;8.87;7.20;;;;;;;5.88;55.31;100602.69;1737794;81;21026;-78
2021/04/29 01:47:22;;;;;;;8.83;7.93;;;;;;;5.85;55.45;100602.98;1704560;83;21134;-78
2021/04/29 01:52:50;;;;;;;11.13;9.03;;;;;;;5.83;55.64;100602.30;1777294;78;22877;-78
2021/04/29 01:55:26;;;;;;;10.50;9.40;;;;;;;5.75;55.60;100600.91;1778490;79;21175;-77
2021/04/29 01:57:54;;;;;;;13.63;9.20;;;;;;;5.73;55.84;100601.56;1730949;81;21159;-77
2021/04/29 02:00:23;;;;;;;13.87;11.30;;;;;;;5.69;55.96;100606.78;1688939;82;21226;-77
2021/04/29 02:02:51;;;;;;;15.17;11.60;;;;;;;5.63;56.07;100596.31;1700685;84;21608;-77
2021/04/29 02:05:20;;;;;;;15.90;12.03;;;;;;;5.57;56.66;100603.03;1698010;82;21786;-77
2021/04/29 02:07:48;;;;;;;18.53;11.33;;;;;;;5.51;56.91;100602.81;1695876;82;21182;-77
2021/04/29 02:10:20;;;;;;;16.37;12.37;;;;;;;5.42;57.22;100604.02;1709381;82;21167;-79
2021/04/29 02:12:56;;;;;;;22.10;13.07;;;;;;;5.37;57.68;100601.02;1750809;79;23169;-77
2021/04/29 02:15:36;;;;;;;24.93;15.60;;;;;;;5.25;57.57;100603.50;1723767;82;21171;-77
2021/04/29 02:18:17;;;;;;;24.20;15.53;;;;;;;5.21;57.73;100612.20;1716917;81;21181;-77
2021/04/29 02:20:46;;;;;;;25.10;17.42;;;;;;;5.18;57.99;100612.52;1737923;81;21346;-77
2021/04/29 02:23:24;;;;;;;21.77;15.13;;;;;;;5.17;57.80;100608.20;1739698;81;21030;-77
2021/04/29 02:25:55;;;;;;;23.53;14.97;;;;;;;5.13;58.39;100604.69;1726580;81;21132;-77
2021/04/29 02:28:24;;;;;;;19.73;12.67;;;;;;;5.13;58.11;100605.52;1742546;81;21596;-77
2021/04/29 02:30:52;;;;;;;18.33;14.37;;;;;;;5.14;57.96;100607.66;1744138;81;21329;-77
2021/04/29 02:33:24;;;;;;;16.90;11.67;;;;;;;5.16;57.81;100613.16;1744404;80;21303;-77
2021/04/29 02:35:55;;;;;;;15.70;12.17;;;;;;;5.18;57.84;100609.87;1741652;81;21141;-77
2021/04/29 02:38:28;;;;;;;18.63;13.80;;;;;;;5.20;57.81;100618.48;1741172;81;21139;-79
2021/04/29 02:41:28;;;;;;;14.97;12.53;;;;;;;5.26;57.74;100606.50;1824023;76;23085;-78
2021/04/29 02:44:14;;;;;;;24.43;14.40;;;;;;;5.23;57.60;100614.70;1789498;77;21128;-78
2021/04/29 02:46:47;;;;;;;18.07;12.43;;;;;;;5.24;57.70;100620.35;1721523;81;21175;-78
2021/04/29 02:49:24;;;;;;;25.70;13.93;;;;;;;5.21;57.95;100620.14;1712593;82;21183;-78
2021/04/29 02:51:55;;;;;;;17.20;13.57;;;;;;;5.17;57.96;100611.34;1702687;82;21319;-78
2021/04/29 02:54:23;;;;;;;18.70;14.50;;;;;;;5.11;58.52;100612.76;1690962;82;21345;-77
2021/04/29 02:56:57;;;;;;;18.77;13.83;;;;;;;5.03;58.50;100617.95;1672276;81;21063;-84
2021/04/29 02:59:45;;;;;;;19.17;13.37;;;;;;;5.02;58.77;100620.23;1724510;80;21191;-84
2021/04/29 03:02:25;;;;;;;17.23;13.53;;;;;;;5.07;58.50;100614.03;1692724;79;23017;-86
2021/04/29 03:04:57;;;;;;;20.77;14.00;;;;;;;5.09;58.42;100613.89;1689929;83;21196;-85
2021/04/29 03:07:29;;;;;;;17.30;13.90;;;;;;;5.24;58.13;100613.25;1685836;83;21222;-86
2021/04/29 03:09:57;;;;;;;14.87;12.70;;;;;;;5.48;57.71;100613.17;1684753;83;21296;-86
2021/04/29 03:12:33;;;;;;;15.07;13.50;;;;;;;5.79;56.52;100602.27;1687537;83;21116;-86
2021/04/29 03:15:02;;;;;;;21.10;15.90;;;;;;;6.25;55.64;100612.28;1665412;84;21202;-86
2021/04/29 03:17:32;;;;;;;25.33;15.70;;;;;;;6.67;54.62;100614.73;1672955;84;21394;-86
2021/04/29 03:20:06;;;;;;;24.07;13.50;;;;;;;7.11;53.77;100616.80;1659171;84;21345;-86
2021/04/29 03:22:49;;;;;;;19.40;12.30;;;;;;;7.71;51.88;100607.05;1790548;77;22387;-86
2021/04/29 03:25:17;;;;;;;20.27;13.13;;;;;;;8.04;50.80;100613.72;1727072;82;21721;-86
2021/04/29 03:27:46;;;;;;;17.83;13.27;;;;;;;8.38;49.76;100615.73;1728992;81;21183;-86
2021/04/29 03:30:16;;;;;;;21.43;14.17;;;;;;;8.66;49.06;100615.38;1688775;83;21683;-86
2021/04/29 03:32:46;;;;;;;17.87;12.27;;;;;;;8.95;48.21;100616.66;1694904;84;21316;-86
2021/04/29 03:35:14;;;;;;;15.43;13.07;;;;;;;9.20;47.67;100620.55;1672560;84;21100;-87
2021/04/29 03:37:45;;;;;;;15.03;12.03;;;;;;;9.42;46.84;100621.60;1676939;84;21308;-85
2021/04/29 03:40:13;;;;;;;17.67;13.80;;;;;;;9.56;46.49;100623.53;1673314;84;21322;-86
2021/04/29 03:42:43;;;;;;;18.77;14.10;;;;;;;9.72;46.02;100623.45;1679952;85;21168;-86
2021/04/29 03:45:11;;;;;;;20.57;14.60;;;;;;;9.90;45.79;100623.66;1671748;84;21092;-85
2021/04/29 03:47:40;;;;;;;21.27;14.70;;;;;;;10.15;45.18;100624.30;1687344;83;21153;-86
2021/04/29 03:50:09;;;;;;;15.50;13.07;;;;;;;10.43;44.83;100625.11;1670228;84;21214;-87
2021/04/29 03:52:36;;;;;;;16.60;12.20;;;;;;;10.75;44.23;100627.15;1695516;83;21312;-86
2021/04/29 03:55:05;;;;;;;18.83;12.73;;;;;;;11.15;43.46;100626.38;1689206;83;21191;-85
2021/04/29 03:57:32;;;;;;;16.10;12.73;;;;;;;11.57;42.56;100624.86;1665151;84;21228;-86
2021/04/29 04:00:00;;;;;;;19.17;12.70;;;;;;;12.01;41.67;100623.91;1687347;83;21180;-87
2021/04/29 04:02:27;;;;;;;14.83;11.22;;;;;;;12.44;40.89;100619.87;1656621;84;21268;-79
2021/04/29 04:04:54;;;;;;;18.85;11.80;;;;;;;12.87;40.29;100620.28;1666213;84;21617;-79
2021/04/29 04:07:21;;;;;;;20.17;12.18;;;;;;;13.32;39.35;100618.90;1672770;84;21610;-75
2021/04/29 04:09:48;;;;;;;17.70;11.93;;;;;;;13.63;38.73;100617.55;1670934;84;21241;-79
2021/04/29 04:12:16;;;;;;;14.87;10.23;;;;;;;13.87;38.17;100613.50;1665997;84;21297;-78
2021/04/29 04:14:44;;;;;;;17.32;10.23;;;;;;;14.18;37.85;100610.75;1677882;83;21166;-78
2021/04/29 04:17:20;;;;;;;10.55;9.10;;;;;;;14.49;37.39;100609.33;1670917;83;21394;-79
2021/04/29 04:19:47;;;;;;;11.08;8.90;;;;;;;14.78;36.91;100614.25;1679979;84;21660;-81
2021/04/29 04:22:14;;;;;;;12.85;9.53;;;;;;;15.09;36.09;100608.72;1667010;83;21196;-84
2021/04/29 04:24:42;;;;;;;11.75;9.40;;;;;;;15.28;35.67;100609.68;1645067;85;21209;-80
2021/04/29 04:27:09;;;;;;;13.48;10.08;;;;;;;15.34;35.66;100612.85;1647536;85;21159;-82
2021/04/29 04:29:37;;;;;;;13.78;11.48;;;;;;;15.35;35.37;100611.83;1638381;85;21210;-81
2021/04/29 04:32:05;;;;;;;13.58;9.93;;;;;;;15.26;35.70;100607.73;1629154;85;21699;-80
2021/04/29 04:34:33;;;;;;;16.67;10.82;;;;;;;15.16;35.68;100605.99;1639754;84;21517;-81
2021/04/29 04:37:00;;;;;;;15.28;9.63;;;;;;;15.03;35.56;100607.38;1621078;87;22417;-80
2021/04/29 04:39:28;;;;;;;14.85;9.60;;;;;;;14.72;36.06;100611.59;1622090;87;21202;-77
2021/04/29 04:41:55;;;;;;;13.83;8.65;;;;;;;14.09;37.02;100607.46;1623286;86;21836;-80
2021/04/29 04:44:22;;;;;;;8.90;8.00;;;;;;;13.57;38.01;100613.02;1624744;86;21296;-79
2021/04/29 04:46:56;;;;;;;8.83;7.80;;;;;;;13.24;38.97;100618.53;1619744;87;21194;-81
2021/04/29 04:49:24;;;;;;;15.85;8.85;;;;;;;13.44;39.21;100611.92;1621546;87;21197;-80
2021/04/29 04:51:51;;;;;;;9.25;8.30;;;;;;;13.65;38.35;100611.48;1620536;87;21671;-80
2021/04/29 04:54:20;;;;;;;10.78;9.33;;;;;;;13.12;39.12;100612.59;1621538;87;21217;-80
2021/04/29 04:56:47;;;;;;;10.05;8.18;;;;;;;12.58;40.22;100614.10;1625988;86;21256;-79
2021/04/29 04:59:14;;;;;;;9.98;8.65;;;;;;;12.12;41.15;100621.24;1622051;87;21200;-80
2021/04/29 05:01:41;;;;;;;10.17;9.27;;;;;;;11.80;41.84;100622.02;1624777;86;21130;-81
2021/04/29 05:04:08;;;;;;;11.47;10.17;;;;;;;11.39;42.77;100623.40;1618857;87;21202;-80
2021/04/29 05:06:36;;;;;;;13.78;10.95;;;;;;;10.99;43.63;100620.73;1621499;87;21223;-81
2021/04/29 05:09:06;;;;;;;16.10;11.27;;;;;;;10.72;44.32;100621.69;1616897;87;21262;-82
2021/04/29 05:11:33;;;;;;;13.37;10.90;;;;;;;10.58;44.76;100632.63;1624694;86;21077;-80
2021/04/29 05:14:00;;;;;;;13.90;11.20;;;;;;;10.38;45.43;100628.81;1647430;85;21180;-80
2021/04/29 05:16:27;;;;;;;11.70;9.13;;;;;;;10.13;46.02;100623.66;1631520;85;21200;-80
2021/04/29 05:18:56;;;;;;;11.77;10.57;;;;;;;9.85;46.78;100624.21;1639778;85;21192;-85
2021/04/29 05:21:23;;;;;;;13.97;11.40;;;;;;;9.70;47.07;100625.46;1663843;84;21382;-77
2021/04/29 05:23:50;;;;;;;14.83;11.50;;;;;;;9.62;47.53;100628.66;1670568;84;21583;-78
2021/04/29 05:26:17;;;;;;;11.20;10.20;;;;;;;9.57;47.88;100628.34;1721052;82;21175;-81
2021/04/29 05:28:44;;;;;;;11.53;10.43;;;;;;;9.49;48.31;100626.08;1721713;82;21176;-81
2021/04/29 05:31:13;;;;;;;11.40;10.20;;;;;;;9.45;48.69;100629.25;1718521;82;21602;-81
2021/04/29 05:33:41;;;;;;;12.30;11.20;;;;;;;9.43;48.69;100634.73;1713925;81;21081;-81
2021/04/29 05:36:10;;;;;;;18.43;14.93;;;;;;;9.41;48.98;100642.06;1669232;84;21174;-81
2021/04/29 05:38:39;;;;;;;19.50;15.43;;;;;;;9.32;49.10;100638.63;1675111;83;21222;-82
2021/04/29 05:41:06;;;;;;;18.93;16.83;;;;;;;9.26;49.45;100637.97;1680959;83;21213;-80
2021/04/29 05:43:33;;;;;;;23.37;20.13;;;;;;;9.23;49.45;100638.81;1700085;83;21311;-82
2021/04/29 05:46:02;;;;;;;20.37;18.37;;;;;;;9.21;49.49;100636.34;1701370;83;21519;-81
2021/04/29 05:48:29;;;;;;;24.50;19.07;;;;;;;9.23;49.84;100639.66;1685259;83;21184;-82
2021/04/29 05:50:57;;;;;;;24.57;19.00;;;;;;;9.21;50.28;100638.16;1699558;83;21141;-82
2021/04/29 05:53:24;;;;;;;24.03;18.50;;;;;;;9.14;50.49;100634.86;1689460;83;21195;-82
2021/04/29 05:55:51;;;;;;;23.00;17.20;;;;;;;9.13;50.68;100636.36;1699257;82;21055;-78
2021/04/29 05:58:18;;;;;;;21.87;19.47;;;;;;;9.14;50.79;100637.52;1697037;83;21195;-78
2021/04/29 06:00:45;;;;;;;18.87;16.93;;;;;;;9.19;51.03;100634.84;1695931;83;21341;-77
2021/04/29 06:03:12;;;;;;;23.20;20.70;;;;;;;9.20;51.18;100636.52;1699845;83;21176;-77
2021/04/29 06:05:39;;;;;;;19.73;17.73;;;;;;;9.13;51.39;100629.70;1699542;83;21187;-78
2021/04/29 06:08:06;;;;;;;22.90;20.57;;;;;;;9.08;51.80;100630.72;1697096;83;21819;-76
2021/04/29 06:10:35;;;;;;;19.03;17.13;;;;;;;9.13;51.87;100627.05;1705755;83;21334;-77
2021/04/29 06:13:04;;;;;;;20.20;18.20;;;;;;;9.08;51.83;100626.25;1693581;81;21061;-77
2021/04/29 06:15:31;;;;;;;18.87;16.70;;;;;;;9.15;51.81;100634.35;1694303;83;21176;-78
2021/04/29 06:17:58;;;;;;;21.03;18.93;;;;;;;9.19;51.89;100637.50;1688393;83;21195;-78
2021/04/29 06:20:28;;;;;;;26.77;20.37;;;;;;;9.28;51.74;100639.13;1705977;83;21164;-78
2021/04/29 06:22:54;;;;;;;22.70;20.37;;;;;;;9.38;51.79;100642.91;1692963;83;21038;-78
2021/04/29 06:25:23;;;;;;;20.70;18.60;;;;;;;9.48;51.54;100642.22;1655283;85;21140;-77
2021/04/29 06:27:50;;;;;;;24.23;20.37;;;;;;;9.64;51.19;100648.77;1633095;85;21146;-80
2021/04/29 06:30:18;;;;;;;23.23;18.80;;;;;;;9.67;50.50;100644.95;1690215;83;21200;-80
2021/04/29 06:32:45;;;;;;;18.40;16.50;;;;;;;9.72;50.54;100652.73;1693746;83;21213;-80
2021/04/29 06:35:12;;;;;;;20.00;17.90;;;;;;;9.79;50.20;100660.02;1668384;84;21236;-80
2021/04/29 06:37:39;;;;;;;19.10;17.03;;;;;;;9.77;50.38;100654.03;1708516;83;21184;-80
2021/04/29 06:40:07;;;;;;;15.47;14.07;;;;;;;9.80;50.30;100655.03;1711966;82;21672;-80
2021/04/29 06:42:34;;;;;;;17.07;15.37;;;;;;;9.88;49.94;100635.81;1703141;83;21180;-80
2021/04/29 06:45:02;;;;;;;18.77;16.53;;;;;;;9.91;50.06;100647.97;1701521;82;21059;-78
2021/04/29 06:47:33;;;;;;;18.67;14.50;;;;;;;9.92;50.18;100637.63;1705781;83;21147;-82
2021/04/29 06:49:59;;;;;;;16.33;14.80;;;;;;;9.96;50.25;100634.93;1702993;83;21160;-81
2021/04/29 06:52:26;;;;;;;15.03;13.60;;;;;;;10.11;50.28;100637.66;1707145;83;21186;-82
2021/04/29 06:54:55;;;;;;;13.93;11.53;;;;;;;10.39;49.74;100625.16;1705546;83;21180;-82
2021/04/29 06:58:44;;;;;;;13.53;12.23;;;;;;;10.87;48.73;100640.37;1817533;77;22741;-81
2021/04/29 07:01:11;;;;;;;13.83;12.40;;;;;;;11.00;48.02;100636.55;1708724;82;21169;-81
2021/04/29 07:03:38;;;;;;;11.30;10.30;;;;;;;11.14;48.03;100642.08;1677034;85;21706;-81
2021/04/29 07:06:05;;;;;;;11.60;10.60;;;;;;;11.26;47.79;100638.77;1700220;83;21725;-81
2021/04/29 07:08:32;;;;;;;12.33;11.03;;;;;;;11.40;47.60;100634.41;1699138;83;21175;-81
2021/04/29 07:11:00;;;;;;;12.87;10.47;;;;;;;11.63;47.22;100627.59;1673027;84;21345;-80
2021/04/29 07:13:27;;;;;;;11.50;10.60;;;;;;;11.82;47.18;100640.02;1700613;83;21238;-81
2021/04/29 07:15:54;;;;;;;13.30;11.47;;;;;;;11.98;46.57;100631.80;1699885;83;21196;-81
2021/04/29 07:18:20;;;;;;;9.67;8.73;;;;;;;12.13;46.40;100626.89;1699310;83;21194;-80
2021/04/29 07:20:48;;;;;;;6.57;5.57;;;;;;;12.31;46.31;100616.57;1700628;83;21306;-79
2021/04/29 07:23:15;;;;;;;5.60;5.10;;;;;;;12.40;45.69;100618.61;1700506;83;21692;-81
2021/04/29 07:25:43;;;;;;;6.13;5.70;;;;;;;12.35;46.11;100615.16;1704982;83;21692;-81
2021/04/29 07:28:11;;;;;;;5.50;5.20;;;;;;;12.28;45.70;100620.95;1669886;85;21362;-81
2021/04/29 07:30:39;;;;;;;6.90;6.20;;;;;;;12.26;45.82;100623.00;1683304;84;21171;-81
2021/04/29 07:33:08;;;;;;;5.70;5.00;;;;;;;12.27;45.98;100618.80;1667168;83;21223;-80
2021/04/29 07:35:35;;;;;;;6.07;5.47;;;;;;;12.27;45.63;100614.79;1670415;85;21720;-80
2021/04/29 07:38:03;;;;;;;5.70;5.30;;;;;;;12.19;45.38;100610.92;1666048;86;21188;-81
2021/04/29 07:40:33;;;;;;;5.35;4.87;;;;;;;12.11;45.88;100627.11;1671916;85;21729;-80
2021/04/29 07:43:02;;;;;;;6.30;5.80;;;;;;;12.13;45.53;100624.22;1668716;85;21188;-80
2021/04/29 07:45:30;;;;;;;5.73;5.27;;;;;;;11.97;45.71;100583.39;1673197;83;21053;-79
2021/04/29 07:47:58;;;;;;;6.13;5.63;;;;;;;12.23;45.82;100641.59;1680160;85;21306;-83
2021/04/29 07:50:31;;;;;;;5.00;4.60;;;;;;;12.31;45.09;100629.94;1680126;83;21524;-76
2021/04/29 07:52:59;;;;;;;5.63;5.13;;;;;;;12.31;45.54;100619.77;1672792;84;21212;-81
2021/04/29 07:55:28;;;;;;;5.27;4.77;;;;;;;12.27;45.34;100610.78;1692920;83;21104;-81
2021/04/29 07:57:57;;;;;;;8.70;5.07;;;;;;;12.38;45.75;100609.96;1679531;84;21739;-80
2021/04/29 08:00:24;;;;;;;5.28;4.78;;;;;;;12.30;45.16;100577.52;1694529;83;21105;-81
2021/04/29 08:02:51;;;;;;;7.65;5.03;;;;;;;12.57;44.63;100595.91;1685875;83;21222;-80
2021/04/29 08:05:20;;;;;;;4.83;4.50;;;;;;;12.55;44.21;100612.66;1684747;83;21325;-80
2021/04/29 08:07:49;;;;;;;4.87;3.77;;;;;;;12.51;44.23;100606.05;1694604;83;21648;-80
2021/04/29 08:10:16;;;;;;;4.77;4.40;;;;;;;12.57;44.31;100597.76;1694631;83;21201;-81
2021/04/29 08:12:44;;;;;;;5.20;4.77;;;;;;;12.65;43.99;100584.23;1664770;81;22459;-80
2021/04/29 08:15:12;;;;;;;5.23;4.43;;;;;;;12.64;44.12;100602.64;1623684;87;22272;-77
2021/04/29 08:17:39;;;;;;;7.20;4.70;;;;;;;12.57;44.35;100582.53;1642897;86;21304;-80
2021/04/29 08:20:07;;;;;;;6.03;4.60;;;;;;;12.60;44.11;100600.88;1636697;87;21606;-82
2021/04/29 08:22:34;;;;;;;4.42;3.77;;;;;;;12.63;44.12;100591.62;1633468;86;21152;-82
2021/04/29 08:25:02;;;;;;;4.83;3.95;;;;;;;12.64;43.86;100580.73;1662626;84;21634;-81
2021/04/29 08:27:30;;;;;;;3.75;3.52;;;;;;;12.71;43.48;100574.07;1692072;83;21342;-79
2021/04/29 08:29:59;;;;;;;4.20;3.90;;;;;;;12.77;43.48;100585.34;1689589;83;21192;-81
2021/04/29 08:32:27;;;;;;;4.23;3.93;;;;;;;12.75;43.13;100603.93;1654377;84;21202;-80
2021/04/29 08:34:54;;;;;;;7.33;4.60;;;;;;;12.68;43.24;100580.33;1675894;84;21252;-80
2021/04/29 08:37:21;;;;;;;4.97;3.92;;;;;;;12.66;43.35;100572.52;1676040;84;21257;-80
2021/04/29 08:39:48;;;;;;;4.15;3.85;;;;;;;12.77;43.11;100571.12;1668264;84;21590;-82
2021/04/29 08:42:16;;;;;;;4.15;3.85;;;;;;;12.91;43.13;100574.72;1682470;84;21184;-81
2021/04/29 08:44:44;;;;;;;5.62;4.92;;;;;;;13.12;43.03;100567.09;1663243;84;21139;-80
2021/04/29 08:47:14;;;;;;;6.20;4.65;;;;;;;13.32;41.95;100581.42;1642864;85;21697;-80
2021/04/29 08:49:42;;;;;;;6.67;4.17;;;;;;;13.22;41.92;100560.84;1627147;85;21261;-81
2021/04/29 08:52:08;;;;;;;6.72;4.80;;;;;;;13.08;42.42;100565.84;1639547;85;21710;-82
2021/04/29 08:54:38;;;;;;;5.92;5.33;;;;;;;13.10;43.10;100558.44;1639333;85;21407;-82
2021/04/29 08:57:06;;;;;;;4.90;4.53;;;;;;;13.22;42.68;100562.18;1647860;83;21221;-83
2021/04/29 08:59:34;;;;;;;6.08;5.37;;;;;;;13.24;42.58;100540.05;1659734;85;21268;-80
2021/04/29 09:02:01;;;;;;;7.65;4.85;;;;;;;13.28;42.34;100551.19;1656249;85;21599;-81
2021/04/29 09:04:41;;;;;;;7.22;4.92;;;;;;;13.33;42.56;100546.91;1660423;85;21710;-81
2021/04/29 09:07:15;;;;;;;9.65;5.20;;;;;;;13.43;42.00;100546.03;1651590;85;21724;-83
2021/04/29 09:09:54;;;;;;;5.25;4.75;;;;;;;13.41;41.97;100552.10;1664516;85;21294;-85
2021/04/29 09:12:24;;;;;;;7.45;5.08;;;;;;;13.36;42.05;100530.45;1662194;85;21084;-82
2021/04/29 09:14:51;;;;;;;5.53;4.85;;;;;;;13.41;42.65;100520.47;1662811;85;21173;-80
2021/04/29 09:17:23;;;;;;;5.08;4.50;;;;;;;13.58;42.00;100520.91;1658842;85;21323;-82
2021/04/29 09:19:50;;;;;;;11.20;6.25;;;;;;;13.71;41.36;100529.00;1665379;85;22116;-82
2021/04/29 09:22:23;;;;;;;6.53;4.72;;;;;;;13.79;41.63;100522.09;1663961;85;21208;-82
2021/04/29 09:24:51;;;;;;;4.78;4.37;;;;;;;13.97;40.97;100509.92;1661076;85;21224;-82
2021/04/29 09:27:24;;;;;;;8.35;5.55;;;;;;;14.10;40.79;100507.23;1643327;85;21738;-82
2021/04/29 09:30:00;;;;;;;5.47;4.92;;;;;;;14.12;40.33;100510.53;1657653;85;21192;-84
2021/04/29 09:32:32;;;;;;;12.58;5.95;;;;;;;13.91;40.62;100507.55;1647432;85;21185;-83
2021/04/29 09:35:03;;;;;;;5.83;4.60;;;;;;;13.80;41.04;100500.95;1644955;85;21758;-82
2021/04/29 09:37:40;;;;;;;5.62;5.12;;;;;;;13.69;41.47;100497.54;1635301;86;21176;-83
2021/04/29 09:40:25;;;;;;;5.85;4.17;;;;;;;13.66;41.58;100499.83;1628276;86;21161;-81
2021/04/29 09:42:54;;;;;;;5.58;5.10;;;;;;;13.62;41.60;100494.06;1647941;85;21172;-82
2021/04/29 09:45:31;;;;;;;3.50;2.77;;;;;;;13.69;41.31;100497.54;1633734;85;21041;-82
2021/04/29 09:48:07;;;;;;;8.08;3.15;;;;;;;13.71;40.75;100479.44;1662105;85;21160;-81
2021/04/29 09:50:41;;;;;;;4.80;2.60;;;;;;;13.75;40.53;100485.18;1651919;85;21615;-81
2021/04/29 09:53:17;;;;;;;3.50;3.17;;;;;;;13.76;40.87;100468.91;1646750;85;21156;-82
2021/04/29 09:55:48;;;;;;;4.40;3.20;;;;;;;13.86;40.45;100476.52;1653175;84;22092;-81
2021/04/29 09:58:17;;;;;;;3.52;3.22;;;;;;;13.94;40.51;100473.66;1652789;85;22368;-82
2021/04/29 10:00:49;;;;;;;3.15;2.60;;;;;;;14.04;40.13;100461.70;1646520;85;21514;-82
2021/04/29 10:03:18;;;;;;;3.58;3.25;;;;;;;14.10;39.43;100476.94;1641364;86;21214;-82
2021/04/29 10:05:50;;;;;;;3.75;3.12;;;;;;;14.10;39.74;100465.69;1641584;85;21299;-82
2021/04/29 10:08:15;;;;;;;2.98;2.72;;;;;;;14.11;39.84;100466.50;1651354;85;21598;-82
2021/04/29 10:10:45;;;;;;;4.08;2.85;;;;;;;14.06;40.16;100469.83;1627733;85;21359;-83
2021/04/29 10:13:18;;;;;;;4.65;2.35;;;;;;;14.09;40.33;100457.36;1637910;85;21119;-83
2021/04/29 10:15:46;;;;;;;5.83;2.95;;;;;;;14.19;40.38;100447.55;1647908;85;21204;-83
2021/04/29 10:18:14;;;;;;;5.15;2.20;;;;;;;14.28;39.59;100465.05;1640371;85;21224;-82
2021/04/29 10:20:49;;;;;;;2.35;2.15;;;;;;;14.27;39.50;100453.19;1644747;85;21220;-82
2021/04/29 10:23:21;;;;;;;3.65;2.50;;;;;;;14.21;39.29;100452.99;1634861;85;21122;-83
2021/04/29 10:25:55;;;;;;;6.30;2.85;;;;;;;14.13;39.43;100446.52;1627394;87;21204;-82
2021/04/29 10:28:42;;;;;;;6.15;2.42;;;;;;;14.09;39.68;100461.38;1636810;85;21651;-83
2021/04/29 10:31:25;;;;;;;1.80;1.67;;;;;;;14.06;39.94;100436.32;1633648;85;21200;-84
2021/04/29 10:34:03;;;;;;;2.67;1.55;;;;;;;14.02;40.29;100447.97;1639417;83;21262;-85
2021/04/29 10:36:41;;;;;;;2.45;2.05;;;;;;;14.04;40.48;100437.05;1629805;85;21199;-80
2021/04/29 10:39:22;;;;;;;6.97;2.22;;;;;;;14.13;40.25;100410.86;1640075;85;21203;-84
2021/04/29 10:42:06;;;;;;;2.00;1.80;;;;;;;14.24;39.79;100436.17;1641991;85;21195;-84
2021/04/29 10:44:50;;;;;;;2.72;1.60;;;;;;;14.29;39.56;100424.31;1634330;85;21098;-84
2021/04/29 10:47:31;;;;;;;5.28;1.92;;;;;;;14.30;39.84;100432.67;1644488;85;21169;-84
2021/04/29 10:50:20;;;;;;;4.85;1.98;;;;;;;14.37;39.50;100419.55;1641725;85;21216;-85
2021/04/29 10:52:49;;;;;;;5.65;1.55;;;;;;;14.45;39.51;100438.61;1649279;85;21800;-84
2021/04/29 10:55:29;;;;;;;3.70;1.60;;;;;;;14.47;39.29;100422.31;1644864;84;21350;-85
2021/04/29 10:57:59;;;;;;;2.37;1.62;;;;;;;14.46;38.98;100424.67;1634984;85;21216;-84
2021/04/29 11:00:29;;;;;;;3.27;2.10;;;;;;;14.47;39.13;100424.47;1641232;85;21120;-85
2021/04/29 11:03:06;;;;;;;2.27;1.82;;;;;;;14.49;39.32;100415.69;1690038;84;21152;-87
2021/04/29 11:09:22;;;;;;;4.50;2.10;;;;;;;14.72;38.87;100413.05;1678474;81;21371;-85
2021/04/29 11:56:04;;;;;;;5.97;2.42;;;;;;;14.99;38.84;100368.09;1716959;78;23002;-87
2021/04/29 11:58:35;;;;;;;3.58;1.12;;;;;;;14.93;38.60;100368.43;1639386;85;21658;-85
2021/04/29 12:01:08;;;;;;;2.25;2.05;;;;;;;15.03;38.13;100347.00;1656467;84;21215;-86
2021/04/29 12:04:44;;;;;;;2.58;1.95;;;;;;;15.09;37.85;100344.28;1790282;79;22996;-87
2021/04/29 12:07:43;;;;;;;3.20;1.75;;;;;;;15.08;38.13;100356.58;1737147;80;21189;-84
2021/04/29 12:10:14;;;;;;;6.00;1.87;;;;;;;15.16;38.00;100327.61;1766481;80;21199;-86
2021/04/29 12:12:50;;;;;;;4.87;2.02;;;;;;;15.24;37.93;100339.09;1697741;80;21108;-86
2021/04/29 12:15:17;;;;;;;5.22;1.80;;;;;;;15.29;38.09;100346.80;1672775;84;21195;-86
2021/04/29 12:17:44;;;;;;;3.35;2.20;;;;;;;15.34;38.13;100333.55;1675661;84;21703;-85
2021/04/29 12:20:12;;;;;;;2.75;2.25;;;;;;;15.35;37.90;100311.03;1656123;85;21201;-87
2021/04/29 12:22:40;;;;;;;2.45;2.02;;;;;;;15.33;38.22;100325.70;1651560;82;21276;-84
2021/04/29 12:25:12;;;;;;;3.05;1.98;;;;;;;15.34;38.13;100316.62;1667696;85;21174;-84
2021/04/29 12:27:41;;;;;;;3.47;1.75;;;;;;;15.36;38.47;100309.16;1678505;84;21363;-85
2021/04/29 12:30:09;;;;;;;2.37;2.17;;;;;;;15.42;38.52;100308.27;1678099;84;21206;-87
2021/04/29 12:32:44;;;;;;;3.30;3.10;;;;;;;15.47;38.36;100307.09;1653526;85;21239;-86